sensor_id;sensor_type;location;lat;lon;timestamp;temperature;humidity
14577;DHT22;7375;46.072;14.470;2023-04-03T00:00:05;23.40;50.80
14577;DHT22;7375;46.072;14.470;2023-04-03T00:02:35;23.40;50.80
14577;DHT22;7375;46.072;14.470;2023-04-03T00:05:02;23.40;50.90
14577;DHT22;7375;46.072;14.470;2023-04-03T00:07:30;23.40;50.80
14577;DHT22;7375;46.072;14.470;2023-04-03T00:09:56;23.40;50.80
14577;DHT22;7375;46.072;14.470;2023-04-03T00:12:23;23.40;50.70
14577;DHT22;7375;46.072;14.470;2023-04-03T00:14:50;23.50;50.80
14577;DHT22;7375;46.072;14.470;2023-04-03T00:17:16;23.50;50.70
14577;DHT22;7375;46.072;14.470;2023-04-03T00:19:45;23.50;50.70
14577;DHT22;7375;46.072;14.470;2023-04-03T00:22:11;23.50;50.80
14577;DHT22;7375;46.072;14.470;2023-04-03T00:24:38;23.50;50.70
14577;DHT22;7375;46.072;14.470;2023-04-03T00:27:05;23.50;50.70
14577;DHT22;7375;46.072;14.470;2023-04-03T00:29:32;23.40;50.60
14577;DHT22;7375;46.072;14.470;2023-04-03T00:31:59;23.50;50.70
14577;DHT22;7375;46.072;14.470;2023-04-03T00:34:25;23.50;50.60
14577;DHT22;7375;46.072;14.470;2023-04-03T00:36:54;23.50;50.60
14577;DHT22;7375;46.072;14.470;2023-04-03T00:39:21;23.50;50.50
14577;DHT22;7375;46.072;14.470;2023-04-03T00:41:47;23.50;50.50
14577;DHT22;7375;46.072;14.470;2023-04-03T00:44:21;23.50;50.50
14577;DHT22;7375;46.072;14.470;2023-04-03T00:46:48;23.50;50.60
14577;DHT22;7375;46.072;14.470;2023-04-03T00:49:14;23.50;50.60
14577;DHT22;7375;46.072;14.470;2023-04-03T00:51:41;23.50;50.60
14577;DHT22;7375;46.072;14.470;2023-04-03T00:54:10;23.50;50.60
14577;DHT22;7375;46.072;14.470;2023-04-03T00:56:37;23.50;50.50
14577;DHT22;7375;46.072;14.470;2023-04-03T00:59:04;23.50;50.50
14577;DHT22;7375;46.072;14.470;2023-04-03T01:01:32;23.50;50.50
14577;DHT22;7375;46.072;14.470;2023-04-03T01:03:59;23.50;50.50
14577;DHT22;7375;46.072;14.470;2023-04-03T01:06:27;23.50;50.40
14577;DHT22;7375;46.072;14.470;2023-04-03T01:08:56;23.60;50.40
14577;DHT22;7375;46.072;14.470;2023-04-03T01:11:24;23.50;50.50
14577;DHT22;7375;46.072;14.470;2023-04-03T01:13:51;23.50;50.40
14577;DHT22;7375;46.072;14.470;2023-04-03T01:16:19;23.50;50.50
14577;DHT22;7375;46.072;14.470;2023-04-03T01:18:46;23.50;50.60
14577;DHT22;7375;46.072;14.470;2023-04-03T01:21:28;23.50;50.60
14577;DHT22;7375;46.072;14.470;2023-04-03T01:24:07;23.50;50.60
14577;DHT22;7375;46.072;14.470;2023-04-03T01:26:39;23.50;50.40
14577;DHT22;7375;46.072;14.470;2023-04-03T01:29:05;23.50;50.60
14577;DHT22;7375;46.072;14.470;2023-04-03T01:31:42;23.50;50.50
14577;DHT22;7375;46.072;14.470;2023-04-03T01:34:10;23.50;50.50
14577;DHT22;7375;46.072;14.470;2023-04-03T01:36:37;23.50;50.40
14577;DHT22;7375;46.072;14.470;2023-04-03T01:39:03;23.50;50.40
14577;DHT22;7375;46.072;14.470;2023-04-03T01:41:30;23.50;50.40
14577;DHT22;7375;46.072;14.470;2023-04-03T01:43:57;23.40;50.50
14577;DHT22;7375;46.072;14.470;2023-04-03T01:46:24;23.50;50.60
14577;DHT22;7375;46.072;14.470;2023-04-03T01:48:52;23.50;50.50
14577;DHT22;7375;46.072;14.470;2023-04-03T01:51:19;23.50;50.40
14577;DHT22;7375;46.072;14.470;2023-04-03T01:53:46;23.40;50.40
14577;DHT22;7375;46.072;14.470;2023-04-03T01:56:12;23.40;50.30
14577;DHT22;7375;46.072;14.470;2023-04-03T01:58:39;23.40;50.30
14577;DHT22;7375;46.072;14.470;2023-04-03T02:01:06;23.50;50.30
14577;DHT22;7375;46.072;14.470;2023-04-03T02:03:33;23.40;50.30
14577;DHT22;7375;46.072;14.470;2023-04-03T02:06:01;23.40;50.40
14577;DHT22;7375;46.072;14.470;2023-04-03T02:08:28;23.40;50.40
14577;DHT22;7375;46.072;14.470;2023-04-03T02:10:55;23.40;50.20
14577;DHT22;7375;46.072;14.470;2023-04-03T02:13:22;23.40;50.20
14577;DHT22;7375;46.072;14.470;2023-04-03T02:15:48;23.40;50.20
14577;DHT22;7375;46.072;14.470;2023-04-03T02:18:15;23.50;50.20
14577;DHT22;7375;46.072;14.470;2023-04-03T02:20:42;23.50;50.20
14577;DHT22;7375;46.072;14.470;2023-04-03T02:23:10;23.50;50.10
14577;DHT22;7375;46.072;14.470;2023-04-03T02:25:37;23.50;50.10
14577;DHT22;7375;46.072;14.470;2023-04-03T02:28:04;23.50;50.10
14577;DHT22;7375;46.072;14.470;2023-04-03T02:30:31;23.50;50.00
14577;DHT22;7375;46.072;14.470;2023-04-03T02:32:58;23.50;50.00
14577;DHT22;7375;46.072;14.470;2023-04-03T02:35:24;23.50;49.80
14577;DHT22;7375;46.072;14.470;2023-04-03T02:37:51;23.50;49.90
14577;DHT22;7375;46.072;14.470;2023-04-03T02:40:19;23.60;49.80
14577;DHT22;7375;46.072;14.470;2023-04-03T02:42:46;23.60;49.80
14577;DHT22;7375;46.072;14.470;2023-04-03T02:45:14;23.60;49.80
14577;DHT22;7375;46.072;14.470;2023-04-03T02:47:41;23.60;49.70
14577;DHT22;7375;46.072;14.470;2023-04-03T02:50:08;23.70;49.60
14577;DHT22;7375;46.072;14.470;2023-04-03T02:52:34;23.70;49.40
14577;DHT22;7375;46.072;14.470;2023-04-03T02:55:01;23.70;49.50
14577;DHT22;7375;46.072;14.470;2023-04-03T02:57:30;23.70;49.30
14577;DHT22;7375;46.072;14.470;2023-04-03T02:59:57;23.80;49.30
14577;DHT22;7375;46.072;14.470;2023-04-03T03:02:23;23.80;49.40
14577;DHT22;7375;46.072;14.470;2023-04-03T03:04:50;23.80;48.90
14577;DHT22;7375;46.072;14.470;2023-04-03T03:07:17;23.90;49.10
14577;DHT22;7375;46.072;14.470;2023-04-03T03:09:44;23.90;49.00
14577;DHT22;7375;46.072;14.470;2023-04-03T03:12:10;23.90;49.00
14577;DHT22;7375;46.072;14.470;2023-04-03T03:14:38;23.80;48.90
14577;DHT22;7375;46.072;14.470;2023-04-03T03:17:05;23.80;48.90
14577;DHT22;7375;46.072;14.470;2023-04-03T03:19:32;23.90;48.90
14577;DHT22;7375;46.072;14.470;2023-04-03T03:21:59;23.90;48.80
14577;DHT22;7375;46.072;14.470;2023-04-03T03:24:26;24.00;48.70
14577;DHT22;7375;46.072;14.470;2023-04-03T03:26:53;24.00;48.60
14577;DHT22;7375;46.072;14.470;2023-04-03T03:29:19;24.00;48.50
14577;DHT22;7375;46.072;14.470;2023-04-03T03:31:47;24.10;48.30
14577;DHT22;7375;46.072;14.470;2023-04-03T03:34:14;24.30;48.00
14577;DHT22;7375;46.072;14.470;2023-04-03T03:36:41;24.50;47.70
14577;DHT22;7375;46.072;14.470;2023-04-03T03:39:08;24.80;47.00
14577;DHT22;7375;46.072;14.470;2023-04-03T03:41:34;25.20;45.90
14577;DHT22;7375;46.072;14.470;2023-04-03T03:44:01;25.70;44.80
14577;DHT22;7375;46.072;14.470;2023-04-03T03:46:28;26.20;43.70
14577;DHT22;7375;46.072;14.470;2023-04-03T03:48:56;26.60;42.90
14577;DHT22;7375;46.072;14.470;2023-04-03T03:51:23;26.90;42.20
14577;DHT22;7375;46.072;14.470;2023-04-03T03:53:50;27.20;41.50
14577;DHT22;7375;46.072;14.470;2023-04-03T03:56:17;27.50;40.90
14577;DHT22;7375;46.072;14.470;2023-04-03T03:58:43;27.70;40.40
14577;DHT22;7375;46.072;14.470;2023-04-03T04:01:10;28.00;40.00
14577;DHT22;7375;46.072;14.470;2023-04-03T04:03:37;28.30;39.70
14577;DHT22;7375;46.072;14.470;2023-04-03T04:06:05;28.60;39.30
14577;DHT22;7375;46.072;14.470;2023-04-03T04:08:32;28.80;39.00
14577;DHT22;7375;46.072;14.470;2023-04-03T04:10:59;29.00;38.60
14577;DHT22;7375;46.072;14.470;2023-04-03T04:13:25;29.20;38.40
14577;DHT22;7375;46.072;14.470;2023-04-03T04:15:52;29.30;38.00
14577;DHT22;7375;46.072;14.470;2023-04-03T04:18:19;29.40;37.90
14577;DHT22;7375;46.072;14.470;2023-04-03T04:20:47;29.50;38.40
14577;DHT22;7375;46.072;14.470;2023-04-03T04:23:16;29.50;37.80
14577;DHT22;7375;46.072;14.470;2023-04-03T04:25:43;29.50;37.80
14577;DHT22;7375;46.072;14.470;2023-04-03T04:28:10;29.70;37.60
14577;DHT22;7375;46.072;14.470;2023-04-03T04:30:37;29.70;37.50
14577;DHT22;7375;46.072;14.470;2023-04-03T04:33:04;29.80;37.30
14577;DHT22;7375;46.072;14.470;2023-04-03T04:35:30;29.90;37.20
14577;DHT22;7375;46.072;14.470;2023-04-03T04:37:57;30.00;37.00
14577;DHT22;7375;46.072;14.470;2023-04-03T04:40:25;30.30;36.60
14577;DHT22;7375;46.072;14.470;2023-04-03T04:42:52;30.50;36.40
14577;DHT22;7375;46.072;14.470;2023-04-03T04:45:19;30.50;36.40
14577;DHT22;7375;46.072;14.470;2023-04-03T04:47:46;30.40;36.50
14577;DHT22;7375;46.072;14.470;2023-04-03T04:50:13;30.20;36.60
14577;DHT22;7375;46.072;14.470;2023-04-03T04:52:40;30.30;36.60
14577;DHT22;7375;46.072;14.470;2023-04-03T04:55:07;30.10;36.90
14577;DHT22;7375;46.072;14.470;2023-04-03T04:57:35;30.00;37.10
14577;DHT22;7375;46.072;14.470;2023-04-03T05:00:04;30.00;37.00
14577;DHT22;7375;46.072;14.470;2023-04-03T05:02:31;30.00;37.00
14577;DHT22;7375;46.072;14.470;2023-04-03T05:04:58;29.90;37.00
14577;DHT22;7375;46.072;14.470;2023-04-03T05:07:25;30.00;37.20
14577;DHT22;7375;46.072;14.470;2023-04-03T05:09:51;29.90;37.30
14577;DHT22;7375;46.072;14.470;2023-04-03T05:12:18;29.90;37.20
14577;DHT22;7375;46.072;14.470;2023-04-03T05:14:46;29.90;37.20
14577;DHT22;7375;46.072;14.470;2023-04-03T05:17:13;29.80;37.70
14577;DHT22;7375;46.072;14.470;2023-04-03T05:19:40;29.90;37.40
14577;DHT22;7375;46.072;14.470;2023-04-03T05:22:07;29.80;37.40
14577;DHT22;7375;46.072;14.470;2023-04-03T05:24:33;29.60;38.30
14577;DHT22;7375;46.072;14.470;2023-04-03T05:27:00;29.10;39.20
14577;DHT22;7375;46.072;14.470;2023-04-03T05:29:27;28.60;40.00
14577;DHT22;7375;46.072;14.470;2023-04-03T05:31:55;28.30;40.60
14577;DHT22;7375;46.072;14.470;2023-04-03T05:34:22;28.00;40.80
14577;DHT22;7375;46.072;14.470;2023-04-03T05:36:49;27.60;41.30
14577;DHT22;7375;46.072;14.470;2023-04-03T05:39:16;27.50;41.70
14577;DHT22;7375;46.072;14.470;2023-04-03T05:41:43;27.10;42.40
14577;DHT22;7375;46.072;14.470;2023-04-03T05:44:09;27.00;43.30
14577;DHT22;7375;46.072;14.470;2023-04-03T05:46:36;26.80;43.20
14577;DHT22;7375;46.072;14.470;2023-04-03T05:49:04;26.60;43.60
14577;DHT22;7375;46.072;14.470;2023-04-03T05:51:32;26.40;44.10
14577;DHT22;7375;46.072;14.470;2023-04-03T05:54:00;26.20;44.50
14577;DHT22;7375;46.072;14.470;2023-04-03T05:56:29;26.10;44.70
14577;DHT22;7375;46.072;14.470;2023-04-03T05:58:56;25.90;45.50
14577;DHT22;7375;46.072;14.470;2023-04-03T06:01:22;25.80;45.20
14577;DHT22;7375;46.072;14.470;2023-04-03T06:03:49;25.60;45.50
14577;DHT22;7375;46.072;14.470;2023-04-03T06:06:18;25.50;45.60
14577;DHT22;7375;46.072;14.470;2023-04-03T06:08:45;25.40;45.70
14577;DHT22;7375;46.072;14.470;2023-04-03T06:11:12;25.20;45.70
14577;DHT22;7375;46.072;14.470;2023-04-03T06:13:38;25.10;45.70
14577;DHT22;7375;46.072;14.470;2023-04-03T06:16:05;25.00;45.90
14577;DHT22;7375;46.072;14.470;2023-04-03T06:18:32;24.80;46.00
14577;DHT22;7375;46.072;14.470;2023-04-03T06:20:59;24.80;46.30
14577;DHT22;7375;46.072;14.470;2023-04-03T06:23:27;24.60;46.40
14577;DHT22;7375;46.072;14.470;2023-04-03T06:25:54;24.50;46.70
14577;DHT22;7375;46.072;14.470;2023-04-03T06:28:21;24.40;46.80
14577;DHT22;7375;46.072;14.470;2023-04-03T06:30:47;24.30;46.90
14577;DHT22;7375;46.072;14.470;2023-04-03T06:33:14;24.30;47.10
14577;DHT22;7375;46.072;14.470;2023-04-03T06:35:41;24.30;47.20
14577;DHT22;7375;46.072;14.470;2023-04-03T06:38:08;24.20;47.40
14577;DHT22;7375;46.072;14.470;2023-04-03T06:40:36;24.30;47.40
14577;DHT22;7375;46.072;14.470;2023-04-03T06:43:03;24.30;47.40
14577;DHT22;7375;46.072;14.470;2023-04-03T06:45:30;24.50;47.30
14577;DHT22;7375;46.072;14.470;2023-04-03T06:47:57;24.70;46.80
14577;DHT22;7375;46.072;14.470;2023-04-03T06:50:24;24.90;46.60
14577;DHT22;7375;46.072;14.470;2023-04-03T06:52:51;25.00;46.40
14577;DHT22;7375;46.072;14.470;2023-04-03T06:55:18;25.00;46.40
14577;DHT22;7375;46.072;14.470;2023-04-03T06:57:46;25.20;46.20
14577;DHT22;7375;46.072;14.470;2023-04-03T07:00:13;25.30;46.20
14577;DHT22;7375;46.072;14.470;2023-04-03T07:02:41;25.30;46.10
14577;DHT22;7375;46.072;14.470;2023-04-03T07:05:08;25.40;46.20
14577;DHT22;7375;46.072;14.470;2023-04-03T07:07:35;25.50;46.20
14577;DHT22;7375;46.072;14.470;2023-04-03T07:10:03;25.50;46.10
14577;DHT22;7375;46.072;14.470;2023-04-03T07:12:30;25.60;46.10
14577;DHT22;7375;46.072;14.470;2023-04-03T07:14:58;25.70;46.10
14577;DHT22;7375;46.072;14.470;2023-04-03T07:17:25;25.70;46.20
14577;DHT22;7375;46.072;14.470;2023-04-03T07:19:52;25.70;46.10
14577;DHT22;7375;46.072;14.470;2023-04-03T07:22:19;25.80;46.00
14577;DHT22;7375;46.072;14.470;2023-04-03T07:24:45;25.90;46.00
14577;DHT22;7375;46.072;14.470;2023-04-03T07:27:12;25.90;45.90
14577;DHT22;7375;46.072;14.470;2023-04-03T07:29:39;26.00;46.00
14577;DHT22;7375;46.072;14.470;2023-04-03T07:32:07;26.00;45.70
14577;DHT22;7375;46.072;14.470;2023-04-03T07:34:35;26.10;45.60
14577;DHT22;7375;46.072;14.470;2023-04-03T07:37:02;26.10;45.60
14577;DHT22;7375;46.072;14.470;2023-04-03T07:39:30;26.10;45.50
14577;DHT22;7375;46.072;14.470;2023-04-03T07:41:56;26.10;45.40
14577;DHT22;7375;46.072;14.470;2023-04-03T07:44:23;26.20;45.50
14577;DHT22;7375;46.072;14.470;2023-04-03T07:46:50;26.20;45.50
14577;DHT22;7375;46.072;14.470;2023-04-03T07:49:18;26.20;45.40
14577;DHT22;7375;46.072;14.470;2023-04-03T07:51:45;26.30;36.90
14577;DHT22;7375;46.072;14.470;2023-04-03T07:54:12;27.70;41.60
14577;DHT22;7375;46.072;14.470;2023-04-03T07:56:45;28.30;41.40
14577;DHT22;7375;46.072;14.470;2023-04-03T07:59:12;28.40;41.60
14577;DHT22;7375;46.072;14.470;2023-04-03T08:01:39;28.50;41.40
14577;DHT22;7375;46.072;14.470;2023-04-03T08:04:06;28.40;41.70
14577;DHT22;7375;46.072;14.470;2023-04-03T08:06:40;28.30;42.00
14577;DHT22;7375;46.072;14.470;2023-04-03T08:09:08;28.10;42.20
14577;DHT22;7375;46.072;14.470;2023-04-03T08:11:35;28.00;42.40
14577;DHT22;7375;46.072;14.470;2023-04-03T08:14:02;27.90;42.40
14577;DHT22;7375;46.072;14.470;2023-04-03T08:16:29;27.90;42.60
14577;DHT22;7375;46.072;14.470;2023-04-03T08:18:56;27.80;42.60
14577;DHT22;7375;46.072;14.470;2023-04-03T08:21:23;27.90;42.70
14577;DHT22;7375;46.072;14.470;2023-04-03T08:23:51;27.90;42.70
14577;DHT22;7375;46.072;14.470;2023-04-03T08:26:18;27.90;42.80
14577;DHT22;7375;46.072;14.470;2023-04-03T08:28:46;27.90;42.80
14577;DHT22;7375;46.072;14.470;2023-04-03T08:31:13;27.90;42.70
14577;DHT22;7375;46.072;14.470;2023-04-03T08:33:40;27.90;42.70
14577;DHT22;7375;46.072;14.470;2023-04-03T08:36:14;28.00;42.70
14577;DHT22;7375;46.072;14.470;2023-04-03T08:38:42;28.00;42.70
14577;DHT22;7375;46.072;14.470;2023-04-03T08:41:13;28.00;42.60
14577;DHT22;7375;46.072;14.470;2023-04-03T08:43:44;28.00;42.60
14577;DHT22;7375;46.072;14.470;2023-04-03T08:46:14;28.00;42.50
14577;DHT22;7375;46.072;14.470;2023-04-03T08:48:43;27.90;42.60
14577;DHT22;7375;46.072;14.470;2023-04-03T08:51:11;27.80;42.80
14577;DHT22;7375;46.072;14.470;2023-04-03T08:53:41;27.80;42.90
14577;DHT22;7375;46.072;14.470;2023-04-03T08:56:09;27.80;42.90
14577;DHT22;7375;46.072;14.470;2023-04-03T08:58:42;27.80;43.00
14577;DHT22;7375;46.072;14.470;2023-04-03T09:01:15;27.70;43.10
14577;DHT22;7375;46.072;14.470;2023-04-03T09:03:43;27.70;43.20
14577;DHT22;7375;46.072;14.470;2023-04-03T09:06:11;27.70;43.20
14577;DHT22;7375;46.072;14.470;2023-04-03T09:08:41;27.60;43.30
14577;DHT22;7375;46.072;14.470;2023-04-03T09:11:12;27.60;43.30
14577;DHT22;7375;46.072;14.470;2023-04-03T09:13:45;27.60;43.40
14577;DHT22;7375;46.072;14.470;2023-04-03T09:16:20;27.50;43.40
14577;DHT22;7375;46.072;14.470;2023-04-03T09:18:48;27.50;43.60
14577;DHT22;7375;46.072;14.470;2023-04-03T09:21:20;27.40;43.70
14577;DHT22;7375;46.072;14.470;2023-04-03T09:23:51;27.30;43.50
14577;DHT22;7375;46.072;14.470;2023-04-03T09:26:28;27.30;43.60
14577;DHT22;7375;46.072;14.470;2023-04-03T09:28:57;27.20;43.60
14577;DHT22;7375;46.072;14.470;2023-04-03T09:31:26;27.10;43.80
14577;DHT22;7375;46.072;14.470;2023-04-03T09:34:04;27.10;43.80
14577;DHT22;7375;46.072;14.470;2023-04-03T09:36:39;27.00;43.90
14577;DHT22;7375;46.072;14.470;2023-04-03T09:39:08;27.00;44.00
14577;DHT22;7375;46.072;14.470;2023-04-03T09:41:36;27.00;43.80
14577;DHT22;7375;46.072;14.470;2023-04-03T09:44:17;27.00;44.00
14577;DHT22;7375;46.072;14.470;2023-04-03T09:46:46;26.90;44.10
14577;DHT22;7375;46.072;14.470;2023-04-03T09:49:13;26.80;44.20
14577;DHT22;7375;46.072;14.470;2023-04-03T09:51:40;26.70;44.30
14577;DHT22;7375;46.072;14.470;2023-04-03T09:56:49;26.30;44.40
14577;DHT22;7375;46.072;14.470;2023-04-03T09:59:22;26.10;45.10
14577;DHT22;7375;46.072;14.470;2023-04-03T10:01:56;25.80;45.10
14577;DHT22;7375;46.072;14.470;2023-04-03T10:04:23;25.50;45.30
14577;DHT22;7375;46.072;14.470;2023-04-03T10:06:51;25.30;45.20
14577;DHT22;7375;46.072;14.470;2023-04-03T10:09:19;25.20;46.00
14577;DHT22;7375;46.072;14.470;2023-04-03T10:11:59;25.10;45.40
14577;DHT22;7375;46.072;14.470;2023-04-03T10:14:28;25.00;45.70
14577;DHT22;7375;46.072;14.470;2023-04-03T10:16:57;24.90;45.90
14577;DHT22;7375;46.072;14.470;2023-04-03T10:19:31;24.80;46.00
14577;DHT22;7375;46.072;14.470;2023-04-03T10:21:59;24.70;45.70
14577;DHT22;7375;46.072;14.470;2023-04-03T10:24:31;24.70;46.20
14577;DHT22;7375;46.072;14.470;2023-04-03T10:27:02;24.60;46.20
14577;DHT22;7375;46.072;14.470;2023-04-03T10:29:36;24.50;46.50
14577;DHT22;7375;46.072;14.470;2023-04-03T10:32:11;24.50;46.80
14577;DHT22;7375;46.072;14.470;2023-04-03T10:34:43;24.40;46.70
14577;DHT22;7375;46.072;14.470;2023-04-03T10:37:13;24.30;47.00
14577;DHT22;7375;46.072;14.470;2023-04-03T10:39:42;24.20;47.10
14577;DHT22;7375;46.072;14.470;2023-04-03T10:42:14;24.10;47.00
14577;DHT22;7375;46.072;14.470;2023-04-03T10:44:50;24.00;46.90
14577;DHT22;7375;46.072;14.470;2023-04-03T10:47:19;23.90;46.70
14577;DHT22;7375;46.072;14.470;2023-04-03T10:49:49;23.90;46.60
14577;DHT22;7375;46.072;14.470;2023-04-03T10:52:20;23.90;46.60
14577;DHT22;7375;46.072;14.470;2023-04-03T10:54:51;23.80;46.60
14577;DHT22;7375;46.072;14.470;2023-04-03T10:57:19;23.70;46.80
14577;DHT22;7375;46.072;14.470;2023-04-03T10:59:50;23.60;46.80
14577;DHT22;7375;46.072;14.470;2023-04-03T11:02:22;23.60;47.10
14577;DHT22;7375;46.072;14.470;2023-04-03T11:04:51;23.60;47.30
14577;DHT22;7375;46.072;14.470;2023-04-03T11:07:20;23.50;47.40
14577;DHT22;7375;46.072;14.470;2023-04-03T11:09:49;23.50;47.40
14577;DHT22;7375;46.072;14.470;2023-04-03T11:12:18;23.50;48.00
14577;DHT22;7375;46.072;14.470;2023-04-03T11:14:47;23.40;47.60
14577;DHT22;7375;46.072;14.470;2023-04-03T11:17:21;23.40;47.80
14577;DHT22;7375;46.072;14.470;2023-04-03T11:19:51;23.40;48.10
14577;DHT22;7375;46.072;14.470;2023-04-03T11:22:22;23.30;48.20
14577;DHT22;7375;46.072;14.470;2023-04-03T11:24:53;23.30;48.40
14577;DHT22;7375;46.072;14.470;2023-04-03T11:27:22;23.20;48.50
14577;DHT22;7375;46.072;14.470;2023-04-03T11:29:50;23.10;48.20
14577;DHT22;7375;46.072;14.470;2023-04-03T11:32:26;23.10;48.50
14577;DHT22;7375;46.072;14.470;2023-04-03T11:34:56;23.10;48.90
14577;DHT22;7375;46.072;14.470;2023-04-03T11:37:25;23.10;48.80
14577;DHT22;7375;46.072;14.470;2023-04-03T11:39:55;23.10;49.00
14577;DHT22;7375;46.072;14.470;2023-04-03T11:42:24;23.00;49.10
14577;DHT22;7375;46.072;14.470;2023-04-03T11:47:46;22.90;49.20
14577;DHT22;7375;46.072;14.470;2023-04-03T11:52:55;22.90;49.30
14577;DHT22;7375;46.072;14.470;2023-04-03T11:55:42;22.80;49.40
14577;DHT22;7375;46.072;14.470;2023-04-03T11:58:12;22.80;49.50
14577;DHT22;7375;46.072;14.470;2023-04-03T12:00:47;22.70;49.40
14577;DHT22;7375;46.072;14.470;2023-04-03T12:08:58;22.60;49.70
14577;DHT22;7375;46.072;14.470;2023-04-03T12:11:25;22.50;50.10
14577;DHT22;7375;46.072;14.470;2023-04-03T12:14:02;22.50;49.60
14577;DHT22;7375;46.072;14.470;2023-04-03T12:16:29;22.50;49.20
14577;DHT22;7375;46.072;14.470;2023-04-03T12:18:58;22.50;49.70
14577;DHT22;7375;46.072;14.470;2023-04-03T12:24:24;22.40;49.90
14577;DHT22;7375;46.072;14.470;2023-04-03T12:27:01;22.40;49.80
14577;DHT22;7375;46.072;14.470;2023-04-03T12:29:29;22.40;50.00
14577;DHT22;7375;46.072;14.470;2023-04-03T12:32:11;22.30;50.50
14577;DHT22;7375;46.072;14.470;2023-04-03T12:34:48;22.30;50.30
14577;DHT22;7375;46.072;14.470;2023-04-03T12:37:21;22.30;50.80
14577;DHT22;7375;46.072;14.470;2023-04-03T12:39:54;22.20;50.70
14577;DHT22;7375;46.072;14.470;2023-04-03T12:42:33;22.20;50.80
14577;DHT22;7375;46.072;14.470;2023-04-03T12:45:09;22.20;50.70
14577;DHT22;7375;46.072;14.470;2023-04-03T12:47:38;22.20;50.50
14577;DHT22;7375;46.072;14.470;2023-04-03T12:50:16;22.10;50.80
14577;DHT22;7375;46.072;14.470;2023-04-03T12:52:45;22.10;51.10
14577;DHT22;7375;46.072;14.470;2023-04-03T12:55:16;22.10;50.80
14577;DHT22;7375;46.072;14.470;2023-04-03T12:57:43;22.00;50.80
14577;DHT22;7375;46.072;14.470;2023-04-03T13:03:04;22.00;51.30
14577;DHT22;7375;46.072;14.470;2023-04-03T13:05:32;22.00;51.40
14577;DHT22;7375;46.072;14.470;2023-04-03T13:08:00;22.00;51.40
14577;DHT22;7375;46.072;14.470;2023-04-03T13:10:29;21.90;51.30
14577;DHT22;7375;46.072;14.470;2023-04-03T13:12:57;21.90;51.40
14577;DHT22;7375;46.072;14.470;2023-04-03T13:15:25;21.90;51.60
14577;DHT22;7375;46.072;14.470;2023-04-03T13:17:52;21.80;51.50
14577;DHT22;7375;46.072;14.470;2023-04-03T13:20:21;21.90;51.60
14577;DHT22;7375;46.072;14.470;2023-04-03T13:22:53;21.80;51.70
14577;DHT22;7375;46.072;14.470;2023-04-03T13:25:23;21.80;51.70
14577;DHT22;7375;46.072;14.470;2023-04-03T13:27:51;21.80;51.70
14577;DHT22;7375;46.072;14.470;2023-04-03T13:30:20;21.80;51.80
14577;DHT22;7375;46.072;14.470;2023-04-03T13:32:47;21.70;51.80
14577;DHT22;7375;46.072;14.470;2023-04-03T13:35:31;21.70;51.80
14577;DHT22;7375;46.072;14.470;2023-04-03T13:37:59;21.70;51.80
14577;DHT22;7375;46.072;14.470;2023-04-03T13:40:26;21.70;51.90
14577;DHT22;7375;46.072;14.470;2023-04-03T13:43:04;21.70;52.00
14577;DHT22;7375;46.072;14.470;2023-04-03T13:45:32;21.70;52.00
14577;DHT22;7375;46.072;14.470;2023-04-03T13:48:10;21.70;52.20
14577;DHT22;7375;46.072;14.470;2023-04-03T13:50:50;21.30;48.50
14577;DHT22;7375;46.072;14.470;2023-04-03T13:53:17;21.40;51.80
14577;DHT22;7375;46.072;14.470;2023-04-03T13:55:59;21.50;51.80
14577;DHT22;7375;46.072;14.470;2023-04-03T13:58:27;21.50;51.80
14577;DHT22;7375;46.072;14.470;2023-04-03T14:00:55;21.50;52.00
14577;DHT22;7375;46.072;14.470;2023-04-03T14:03:23;21.50;52.20
14577;DHT22;7375;46.072;14.470;2023-04-03T14:05:50;21.50;52.30
14577;DHT22;7375;46.072;14.470;2023-04-03T14:08:17;21.50;52.40
14577;DHT22;7375;46.072;14.470;2023-04-03T14:10:44;21.50;52.60
14577;DHT22;7375;46.072;14.470;2023-04-03T14:13:12;21.50;52.80
14577;DHT22;7375;46.072;14.470;2023-04-03T14:15:41;21.50;52.90
14577;DHT22;7375;46.072;14.470;2023-04-03T14:18:10;21.50;53.00
14577;DHT22;7375;46.072;14.470;2023-04-03T14:20:38;21.50;53.10
14577;DHT22;7375;46.072;14.470;2023-04-03T14:23:05;21.40;53.00
14577;DHT22;7375;46.072;14.470;2023-04-03T14:25:31;21.40;52.90
14577;DHT22;7375;46.072;14.470;2023-04-03T14:27:58;21.40;53.10
14577;DHT22;7375;46.072;14.470;2023-04-03T14:30:26;21.40;53.00
14577;DHT22;7375;46.072;14.470;2023-04-03T14:32:54;21.40;53.00
14577;DHT22;7375;46.072;14.470;2023-04-03T14:35:21;21.40;53.00
14577;DHT22;7375;46.072;14.470;2023-04-03T14:37:48;21.40;53.00
14577;DHT22;7375;46.072;14.470;2023-04-03T14:40:16;21.30;52.90
14577;DHT22;7375;46.072;14.470;2023-04-03T14:42:44;21.40;53.00
14577;DHT22;7375;46.072;14.470;2023-04-03T14:45:12;21.40;53.00
14577;DHT22;7375;46.072;14.470;2023-04-03T14:47:40;21.40;53.10
14577;DHT22;7375;46.072;14.470;2023-04-03T14:50:12;21.40;53.10
14577;DHT22;7375;46.072;14.470;2023-04-03T14:52:41;21.30;53.00
14577;DHT22;7375;46.072;14.470;2023-04-03T14:55:08;21.30;53.00
14577;DHT22;7375;46.072;14.470;2023-04-03T14:57:34;21.30;53.00
14577;DHT22;7375;46.072;14.470;2023-04-03T15:00:02;21.30;53.00
14577;DHT22;7375;46.072;14.470;2023-04-03T15:02:30;21.30;53.10
14577;DHT22;7375;46.072;14.470;2023-04-03T15:05:05;21.30;53.00
14577;DHT22;7375;46.072;14.470;2023-04-03T15:07:35;21.30;53.10
14577;DHT22;7375;46.072;14.470;2023-04-03T15:10:05;21.30;53.10
14577;DHT22;7375;46.072;14.470;2023-04-03T15:12:33;21.30;53.10
14577;DHT22;7375;46.072;14.470;2023-04-03T15:15:00;21.30;53.10
14577;DHT22;7375;46.072;14.470;2023-04-03T15:17:26;21.20;53.00
14577;DHT22;7375;46.072;14.470;2023-04-03T15:19:53;21.20;53.00
14577;DHT22;7375;46.072;14.470;2023-04-03T15:22:20;21.20;53.00
14577;DHT22;7375;46.072;14.470;2023-04-03T15:24:48;21.20;52.90
14577;DHT22;7375;46.072;14.470;2023-04-03T15:27:15;21.20;53.10
14577;DHT22;7375;46.072;14.470;2023-04-03T15:29:42;21.20;53.10
14577;DHT22;7375;46.072;14.470;2023-04-03T15:32:09;21.20;53.20
14577;DHT22;7375;46.072;14.470;2023-04-03T15:34:36;21.20;53.20
14577;DHT22;7375;46.072;14.470;2023-04-03T15:37:03;21.90;51.70
14577;DHT22;7375;46.072;14.470;2023-04-03T15:39:30;22.10;50.40
14577;DHT22;7375;46.072;14.470;2023-04-03T15:41:58;22.00;50.10
14577;DHT22;7375;46.072;14.470;2023-04-03T15:44:31;21.90;50.60
14577;DHT22;7375;46.072;14.470;2023-04-03T15:46:59;21.70;49.70
14577;DHT22;7375;46.072;14.470;2023-04-03T15:49:26;21.60;49.90
14577;DHT22;7375;46.072;14.470;2023-04-03T15:51:53;21.50;49.70
14577;DHT22;7375;46.072;14.470;2023-04-03T15:54:20;21.50;49.50
14577;DHT22;7375;46.072;14.470;2023-04-03T15:56:49;21.50;50.30